Warning: Javascript must be enabled to use all the features on this page!


Page Loading - Please Wait...

* We've detected you're using a mobile device. Find our mobile dedicated web site here.
Click to hideNews Bulletins

USGS 04189260 Blanchard River at Ottawa OH

PROVISIONAL DATA SUBJECT TO REVISION

Click to hidestation-specific text
Funding for this site is provided by:

 

> WaterNow – get the latest gage data from your mobile phone or email.
> Rating Information

Want to learn more about areas near this gage that are inundated during flooding? See the USGS flood-inundation mapper.
Available Parameters Available Period
All 2 Available Parameters for this site
  
00060 Discharge 2009-10-01  2018-12-15
00065 Gage height 2017-05-30  2018-12-15

Graph
Graph w/ stats
Graph w/o stats
Graph w/ (up to 3) parms
Table
Tab-separated
Days  (7)
 

  -- or --
Begin date
 

End date
 

Summary of all available data for this site
Instantaneous-data availability statement
Gage height, feet
TIMEDec 8Dec 9Dec 10Dec 11Dec 12Dec 13Dec 14Dec 15
00:00 EST8.20P  7.48P  7.07P  6.78P  6.74P  6.44P  6.32P  6.40P  
00:30 EST8.18P  7.47P  7.06P  6.77P  6.73P  6.43P  6.32P  6.41P  
01:00 EST8.16P  7.46P  7.05P  6.76P  6.71P  6.43P  6.32P  6.42P  
01:30 EST8.14P  7.44P  7.04P  6.73P  6.69P  6.43P  6.33P  6.42P  
02:00 EST8.12P  7.43P  7.03P  6.67P  6.68P  6.43P  6.34P  6.43P  
02:30 EST8.11P  7.42P  7.02P  6.60P  6.67P  6.43P  6.34P  6.43P  
03:00 EST8.09P  7.41P  7.01P  6.54P  6.66P  6.43P  6.35P  6.43P  
03:30 EST8.08P  7.39P  7.00P  6.49P  6.65P  6.42P  6.35P  6.43P  
04:00 EST8.06P  7.38P  6.99P  6.46P  6.64P  6.42P  6.36P  6.43P  
04:30 EST8.05P  7.37P  6.98P  6.44P  6.63P  6.42P  6.36P  6.43P  
05:00 EST8.03P  7.36P  6.97P  6.43P  6.62P  6.42P  6.37P  6.43P  
05:30 EST8.02P  7.35P  6.96P  6.42P  6.61P  6.42P  6.37P  6.43P  
06:00 EST8.00P  7.34P  6.94P  6.42P  6.60P  6.41P  6.38P  6.43P  
06:30 EST7.99P  7.33P  6.92P  6.41P  6.59P  6.41P  6.38P  6.43P  
07:00 EST7.98P  7.31P  6.90P  6.42P  6.59P  6.41P  6.39P  6.42P  
07:30 EST7.97P  7.30P  6.88P  6.42P  6.59P  6.41P  6.39P  6.42P  
08:00 EST7.95P  7.29P  6.86P  6.43P  6.58P  6.41P  6.40P  6.42P  
08:30 EST7.94P  7.28P  6.84P  6.43P  6.58P  6.40P  6.40P  6.42P  
09:00 EST7.93P  7.26P  6.83P  6.44P  6.57P  6.40P  6.40P  6.42P  
09:30 EST7.91P  7.25P  6.82P  6.45P  6.58P  6.39P  6.41P  6.42P  
10:00 EST7.90P  7.23P  6.82P  6.50P  6.59P  6.39P  6.41P  6.41P  
10:30 EST7.89P  7.22P  6.83P  6.57P  6.59P  6.39P  6.41P  6.40P  
11:00 EST7.87P  7.21P  6.85P  6.68P  6.59P  6.38P  6.42P  6.41P  
11:30 EST7.86P  7.20P  6.86P  6.76P  6.59P  6.38P  6.42P  6.40P  
12:00 EST7.85P  7.19P  6.87P  6.81P  6.58P  6.38P  6.42P  6.40P  
12:30 EST7.84P  7.19P  6.89P  6.84P  6.57P  6.37P  6.42P  6.40P  
13:00 EST7.82P  7.19P  6.90P  6.87P  6.57P  6.37P  6.42P  6.40P  
13:30 EST7.81P  7.19P  6.91P  6.90P  6.55P  6.37P  6.42P  6.40P  
14:00 EST7.80P  7.20P  6.91P  6.93P  6.55P  6.36P  6.43P  6.39P  
14:30 EST7.78P  7.20P  6.92P  6.96P  6.54P  6.36P  6.43P  6.39P  
15:00 EST7.77P  7.20P  6.92P  6.98P  6.53P  6.35P  6.43P  6.39P  
15:30 EST7.76P  7.19P  6.92P  7.01P  6.52P  6.35P  6.42P  6.39P  
16:00 EST7.75P  7.20P  6.92P  7.03P  6.51P  6.34P  6.42P  6.39P  
16:30 EST7.73P  7.18P  6.91P  7.04P  6.51P  6.34P  6.42P  6.38P  
17:00 EST7.72P  7.18P  6.91P  7.04P  6.50P  6.33P  6.42P  6.38P  
17:30 EST7.70P  7.17P  6.90P  7.03P  6.49P  6.33P  6.42P  6.38P  
18:00 EST7.68P  7.17P  6.89P  7.02P  6.49P  6.32P  6.42P   
18:30 EST7.65P  7.16P  6.88P  7.00P  6.48P  6.32P  6.41P   
19:00 EST7.63P  7.15P  6.87P  6.98P  6.48P  6.32P  6.41P   
19:30 EST7.62P  7.14P  6.86P  6.95P  6.47P  6.31P  6.41P   
20:00 EST7.60P  7.13P  6.85P  6.93P  6.47P  6.31P  6.40P   
20:30 EST7.58P  7.12P  6.84P  6.90P  6.46P  6.31P  6.40P   
21:00 EST7.57P  7.11P  6.83P  6.88P  6.46P  6.31P  6.40P   
21:30 EST7.55P  7.10P  6.81P  6.85P  6.45P  6.31P  6.39P   
22:00 EST7.54P  7.10P  6.81P  6.83P  6.45P  6.31P  6.39P   
22:30 EST7.52P  7.09P  6.80P  6.80P  6.44P  6.31P  6.39P   
23:00 EST7.51P  7.08P  6.79P  6.78P  6.44P  6.31P  6.39P   
23:30 EST7.49P  7.07P  6.79P  6.76P  6.44P  6.31P  6.40P   
COUNT4848484848484836
MAX8.207.487.077.046.746.446.436.43
MIN7.497.076.796.416.446.316.326.38

Explanation
  P  Provisional data subject to revision.